sensor_id;sensor_type;location;lat;lon;timestamp;temperature;humidity
17845;DHT22;9047;53.486;10.218;2024-02-26T00:00:24;3.10;99.90
17845;DHT22;9047;53.486;10.218;2024-02-26T00:02:51;3.10;99.90
17845;DHT22;9047;53.486;10.218;2024-02-26T00:05:22;3.00;99.90
17845;DHT22;9047;53.486;10.218;2024-02-26T00:07:50;2.90;99.90
17845;DHT22;9047;53.486;10.218;2024-02-26T00:10:17;2.90;99.90
17845;DHT22;9047;53.486;10.218;2024-02-26T00:12:51;2.80;99.90
17845;DHT22;9047;53.486;10.218;2024-02-26T00:15:24;2.80;99.90
17845;DHT22;9047;53.486;10.218;2024-02-26T00:17:53;2.70;99.90
17845;DHT22;9047;53.486;10.218;2024-02-26T00:20:21;2.80;99.90
17845;DHT22;9047;53.486;10.218;2024-02-26T00:22:51;2.80;99.90
17845;DHT22;9047;53.486;10.218;2024-02-26T00:25:22;2.70;99.90
17845;DHT22;9047;53.486;10.218;2024-02-26T00:27:53;2.60;99.90
17845;DHT22;9047;53.486;10.218;2024-02-26T00:30:24;2.60;99.90
17845;DHT22;9047;53.486;10.218;2024-02-26T00:32:52;2.60;99.90
17845;DHT22;9047;53.486;10.218;2024-02-26T00:35:22;2.60;99.90
17845;DHT22;9047;53.486;10.218;2024-02-26T00:37:49;2.60;99.90
17845;DHT22;9047;53.486;10.218;2024-02-26T00:40:17;2.60;99.90
17845;DHT22;9047;53.486;10.218;2024-02-26T00:42:46;2.50;99.90
17845;DHT22;9047;53.486;10.218;2024-02-26T00:45:14;2.40;99.90
17845;DHT22;9047;53.486;10.218;2024-02-26T00:47:46;2.40;99.90
17845;DHT22;9047;53.486;10.218;2024-02-26T00:50:14;2.30;99.90
17845;DHT22;9047;53.486;10.218;2024-02-26T00:52:42;2.20;99.90
17845;DHT22;9047;53.486;10.218;2024-02-26T00:55:11;2.10;99.90
17845;DHT22;9047;53.486;10.218;2024-02-26T00:57:42;2.20;99.90
17845;DHT22;9047;53.486;10.218;2024-02-26T01:00:09;2.20;99.90
17845;DHT22;9047;53.486;10.218;2024-02-26T01:02:37;2.20;99.90
17845;DHT22;9047;53.486;10.218;2024-02-26T01:05:13;2.10;99.90
17845;DHT22;9047;53.486;10.218;2024-02-26T01:07:42;2.10;99.90
17845;DHT22;9047;53.486;10.218;2024-02-26T01:10:09;2.10;99.90
17845;DHT22;9047;53.486;10.218;2024-02-26T01:12:37;2.00;99.90
17845;DHT22;9047;53.486;10.218;2024-02-26T01:15:06;2.00;99.90
17845;DHT22;9047;53.486;10.218;2024-02-26T01:17:39;1.90;99.90
17845;DHT22;9047;53.486;10.218;2024-02-26T01:20:08;1.90;99.90
17845;DHT22;9047;53.486;10.218;2024-02-26T01:22:38;1.80;99.90
17845;DHT22;9047;53.486;10.218;2024-02-26T01:25:11;1.70;99.90
17845;DHT22;9047;53.486;10.218;2024-02-26T01:27:40;1.80;99.90
17845;DHT22;9047;53.486;10.218;2024-02-26T01:30:16;1.70;99.90
17845;DHT22;9047;53.486;10.218;2024-02-26T01:32:52;1.70;99.90
17845;DHT22;9047;53.486;10.218;2024-02-26T01:35:22;1.80;99.90
17845;DHT22;9047;53.486;10.218;2024-02-26T01:37:53;1.80;99.90
17845;DHT22;9047;53.486;10.218;2024-02-26T01:40:20;1.70;99.90
17845;DHT22;9047;53.486;10.218;2024-02-26T01:42:49;1.80;99.90
17845;DHT22;9047;53.486;10.218;2024-02-26T01:45:24;1.70;99.90
17845;DHT22;9047;53.486;10.218;2024-02-26T01:47:51;1.70;99.90
17845;DHT22;9047;53.486;10.218;2024-02-26T01:50:33;1.70;99.90
17845;DHT22;9047;53.486;10.218;2024-02-26T01:53:09;1.60;99.90
17845;DHT22;9047;53.486;10.218;2024-02-26T01:55:37;1.60;99.90
17845;DHT22;9047;53.486;10.218;2024-02-26T01:58:06;1.60;99.90
17845;DHT22;9047;53.486;10.218;2024-02-26T02:00:35;1.50;99.90
17845;DHT22;9047;53.486;10.218;2024-02-26T02:03:04;1.50;99.90
17845;DHT22;9047;53.486;10.218;2024-02-26T02:05:33;1.50;99.90
17845;DHT22;9047;53.486;10.218;2024-02-26T02:08:12;1.50;99.90
17845;DHT22;9047;53.486;10.218;2024-02-26T02:10:41;1.60;99.90
17845;DHT22;9047;53.486;10.218;2024-02-26T02:13:09;1.60;99.90
17845;DHT22;9047;53.486;10.218;2024-02-26T02:15:38;1.60;99.90
17845;DHT22;9047;53.486;10.218;2024-02-26T02:18:06;1.70;99.90
17845;DHT22;9047;53.486;10.218;2024-02-26T02:20:35;1.60;99.90
17845;DHT22;9047;53.486;10.218;2024-02-26T02:23:09;1.50;99.90
17845;DHT22;9047;53.486;10.218;2024-02-26T02:25:40;1.50;99.90
17845;DHT22;9047;53.486;10.218;2024-02-26T02:28:07;1.40;99.90
17845;DHT22;9047;53.486;10.218;2024-02-26T02:30:36;1.30;99.90
17845;DHT22;9047;53.486;10.218;2024-02-26T02:33:06;1.40;99.90
17845;DHT22;9047;53.486;10.218;2024-02-26T02:35:37;1.30;99.90
17845;DHT22;9047;53.486;10.218;2024-02-26T02:38:04;1.30;99.90
17845;DHT22;9047;53.486;10.218;2024-02-26T02:40:36;1.30;99.90
17845;DHT22;9047;53.486;10.218;2024-02-26T02:43:17;1.20;99.90
17845;DHT22;9047;53.486;10.218;2024-02-26T02:45:44;1.20;99.90
17845;DHT22;9047;53.486;10.218;2024-02-26T02:48:11;1.10;99.90
17845;DHT22;9047;53.486;10.218;2024-02-26T02:50:43;1.10;99.90
17845;DHT22;9047;53.486;10.218;2024-02-26T02:53:24;1.10;99.90
17845;DHT22;9047;53.486;10.218;2024-02-26T02:55:51;1.20;99.90
17845;DHT22;9047;53.486;10.218;2024-02-26T02:58:18;1.10;99.90
17845;DHT22;9047;53.486;10.218;2024-02-26T03:00:49;1.10;99.90
17845;DHT22;9047;53.486;10.218;2024-02-26T03:03:16;1.10;99.90
17845;DHT22;9047;53.486;10.218;2024-02-26T03:06:00;1.10;99.90
17845;DHT22;9047;53.486;10.218;2024-02-26T03:08:28;1.00;99.90
17845;DHT22;9047;53.486;10.218;2024-02-26T03:10:59;1.00;99.90
17845;DHT22;9047;53.486;10.218;2024-02-26T03:13:26;1.10;99.90
17845;DHT22;9047;53.486;10.218;2024-02-26T03:15:55;1.00;99.90
17845;DHT22;9047;53.486;10.218;2024-02-26T03:18:22;1.10;99.90
17845;DHT22;9047;53.486;10.218;2024-02-26T03:20:51;1.10;99.90
17845;DHT22;9047;53.486;10.218;2024-02-26T03:23:24;1.20;99.90
17845;DHT22;9047;53.486;10.218;2024-02-26T03:25:51;1.20;99.90
17845;DHT22;9047;53.486;10.218;2024-02-26T03:28:19;1.30;99.90
17845;DHT22;9047;53.486;10.218;2024-02-26T03:31:01;1.30;99.90
17845;DHT22;9047;53.486;10.218;2024-02-26T03:33:28;1.20;99.90
17845;DHT22;9047;53.486;10.218;2024-02-26T03:35:55;1.20;99.90
17845;DHT22;9047;53.486;10.218;2024-02-26T03:38:26;1.10;99.90
17845;DHT22;9047;53.486;10.218;2024-02-26T03:40:53;1.00;99.90
17845;DHT22;9047;53.486;10.218;2024-02-26T03:43:22;1.00;99.90
17845;DHT22;9047;53.486;10.218;2024-02-26T03:45:51;1.00;99.90
17845;DHT22;9047;53.486;10.218;2024-02-26T03:48:19;1.00;99.90
17845;DHT22;9047;53.486;10.218;2024-02-26T03:50:48;1.00;99.90
17845;DHT22;9047;53.486;10.218;2024-02-26T03:53:15;1.00;99.90
17845;DHT22;9047;53.486;10.218;2024-02-26T03:55:50;0.90;99.90
17845;DHT22;9047;53.486;10.218;2024-02-26T03:58:18;0.80;99.90
17845;DHT22;9047;53.486;10.218;2024-02-26T04:00:45;0.80;99.90
17845;DHT22;9047;53.486;10.218;2024-02-26T04:03:14;0.70;99.90
17845;DHT22;9047;53.486;10.218;2024-02-26T04:05:42;0.70;99.90
17845;DHT22;9047;53.486;10.218;2024-02-26T04:08:09;0.70;99.90
17845;DHT22;9047;53.486;10.218;2024-02-26T04:10:36;0.70;99.90
17845;DHT22;9047;53.486;10.218;2024-02-26T04:13:07;0.60;99.90
17845;DHT22;9047;53.486;10.218;2024-02-26T04:15:34;0.60;99.90
17845;DHT22;9047;53.486;10.218;2024-02-26T04:18:02;0.60;99.90
17845;DHT22;9047;53.486;10.218;2024-02-26T04:20:29;0.70;99.90
17845;DHT22;9047;53.486;10.218;2024-02-26T04:22:56;0.60;99.90
17845;DHT22;9047;53.486;10.218;2024-02-26T04:25:26;0.60;99.90
17845;DHT22;9047;53.486;10.218;2024-02-26T04:27:57;0.60;99.90
17845;DHT22;9047;53.486;10.218;2024-02-26T04:30:28;0.60;99.90
17845;DHT22;9047;53.486;10.218;2024-02-26T04:32:56;0.70;99.90
17845;DHT22;9047;53.486;10.218;2024-02-26T04:35:25;0.70;99.90
17845;DHT22;9047;53.486;10.218;2024-02-26T04:37:53;0.70;99.90
17845;DHT22;9047;53.486;10.218;2024-02-26T04:40:22;0.70;99.90
17845;DHT22;9047;53.486;10.218;2024-02-26T04:42:51;0.60;99.90
17845;DHT22;9047;53.486;10.218;2024-02-26T04:45:19;0.60;99.90
17845;DHT22;9047;53.486;10.218;2024-02-26T04:47:48;0.60;99.90
17845;DHT22;9047;53.486;10.218;2024-02-26T04:50:16;0.60;99.90
17845;DHT22;9047;53.486;10.218;2024-02-26T04:52:43;0.60;99.90
17845;DHT22;9047;53.486;10.218;2024-02-26T04:55:13;0.60;99.90
17845;DHT22;9047;53.486;10.218;2024-02-26T04:57:40;0.60;99.90
17845;DHT22;9047;53.486;10.218;2024-02-26T05:00:09;0.60;99.90
17845;DHT22;9047;53.486;10.218;2024-02-26T05:02:37;0.70;99.90
17845;DHT22;9047;53.486;10.218;2024-02-26T05:05:19;0.70;99.90
17845;DHT22;9047;53.486;10.218;2024-02-26T05:07:46;0.70;99.90
17845;DHT22;9047;53.486;10.218;2024-02-26T05:10:27;0.70;99.90
17845;DHT22;9047;53.486;10.218;2024-02-26T05:12:56;0.70;99.90
17845;DHT22;9047;53.486;10.218;2024-02-26T05:15:23;0.70;99.90
17845;DHT22;9047;53.486;10.218;2024-02-26T05:17:56;0.70;99.90
17845;DHT22;9047;53.486;10.218;2024-02-26T05:20:37;0.70;99.90
17845;DHT22;9047;53.486;10.218;2024-02-26T05:23:05;0.70;99.90
17845;DHT22;9047;53.486;10.218;2024-02-26T05:25:33;0.70;99.90
17845;DHT22;9047;53.486;10.218;2024-02-26T05:28:14;0.70;99.90
17845;DHT22;9047;53.486;10.218;2024-02-26T05:30:59;0.70;99.90
17845;DHT22;9047;53.486;10.218;2024-02-26T05:33:26;0.80;99.90
17845;DHT22;9047;53.486;10.218;2024-02-26T05:36:08;0.80;99.90
17845;DHT22;9047;53.486;10.218;2024-02-26T05:38:35;0.70;99.90
17845;DHT22;9047;53.486;10.218;2024-02-26T05:41:07;0.80;99.90
17845;DHT22;9047;53.486;10.218;2024-02-26T05:43:35;0.80;99.90
17845;DHT22;9047;53.486;10.218;2024-02-26T05:46:03;0.80;99.90
17845;DHT22;9047;53.486;10.218;2024-02-26T05:48:31;0.80;99.90
17845;DHT22;9047;53.486;10.218;2024-02-26T05:51:01;0.80;99.90
17845;DHT22;9047;53.486;10.218;2024-02-26T05:53:31;0.80;99.90
17845;DHT22;9047;53.486;10.218;2024-02-26T05:56:00;0.80;99.90
17845;DHT22;9047;53.486;10.218;2024-02-26T05:58:27;0.80;99.90
17845;DHT22;9047;53.486;10.218;2024-02-26T06:00:57;0.90;99.90
17845;DHT22;9047;53.486;10.218;2024-02-26T06:03:26;1.00;99.90
17845;DHT22;9047;53.486;10.218;2024-02-26T06:05:54;1.10;99.90
17845;DHT22;9047;53.486;10.218;2024-02-26T06:08:22;1.10;99.90
17845;DHT22;9047;53.486;10.218;2024-02-26T06:10:51;1.10;99.90
17845;DHT22;9047;53.486;10.218;2024-02-26T06:13:19;1.20;99.90
17845;DHT22;9047;53.486;10.218;2024-02-26T06:15:48;1.20;99.90
17845;DHT22;9047;53.486;10.218;2024-02-26T06:18:24;1.30;99.90
17845;DHT22;9047;53.486;10.218;2024-02-26T06:20:52;1.30;99.90
17845;DHT22;9047;53.486;10.218;2024-02-26T06:23:22;1.30;99.90
17845;DHT22;9047;53.486;10.218;2024-02-26T06:25:51;1.30;99.90
17845;DHT22;9047;53.486;10.218;2024-02-26T06:28:23;1.30;99.90
17845;DHT22;9047;53.486;10.218;2024-02-26T06:30:54;1.40;99.90
17845;DHT22;9047;53.486;10.218;2024-02-26T06:33:31;1.40;99.90
17845;DHT22;9047;53.486;10.218;2024-02-26T06:35:57;1.40;99.90
17845;DHT22;9047;53.486;10.218;2024-02-26T06:38:24;1.40;99.90
17845;DHT22;9047;53.486;10.218;2024-02-26T06:40:53;1.50;99.90
17845;DHT22;9047;53.486;10.218;2024-02-26T06:43:24;1.50;99.90
17845;DHT22;9047;53.486;10.218;2024-02-26T06:45:53;1.60;99.90
17845;DHT22;9047;53.486;10.218;2024-02-26T06:48:22;1.60;99.90
17845;DHT22;9047;53.486;10.218;2024-02-26T06:50:49;1.60;99.90
17845;DHT22;9047;53.486;10.218;2024-02-26T06:53:23;1.60;99.90
17845;DHT22;9047;53.486;10.218;2024-02-26T06:55:53;1.70;99.90
17845;DHT22;9047;53.486;10.218;2024-02-26T06:58:20;1.70;99.90
17845;DHT22;9047;53.486;10.218;2024-02-26T07:00:53;1.70;99.90
17845;DHT22;9047;53.486;10.218;2024-02-26T07:03:24;1.70;99.90
17845;DHT22;9047;53.486;10.218;2024-02-26T07:05:52;1.80;99.90
17845;DHT22;9047;53.486;10.218;2024-02-26T07:08:23;1.90;99.90
17845;DHT22;9047;53.486;10.218;2024-02-26T07:10:50;1.90;99.90
17845;DHT22;9047;53.486;10.218;2024-02-26T07:13:28;2.00;99.90
17845;DHT22;9047;53.486;10.218;2024-02-26T07:15:58;2.10;99.90
17845;DHT22;9047;53.486;10.218;2024-02-26T07:18:27;2.10;99.90
17845;DHT22;9047;53.486;10.218;2024-02-26T07:20:58;2.20;99.90
17845;DHT22;9047;53.486;10.218;2024-02-26T07:23:27;2.10;99.90
17845;DHT22;9047;53.486;10.218;2024-02-26T07:25:55;2.30;99.90
17845;DHT22;9047;53.486;10.218;2024-02-26T07:28:27;2.30;99.90
17845;DHT22;9047;53.486;10.218;2024-02-26T07:30:54;2.40;99.90
17845;DHT22;9047;53.486;10.218;2024-02-26T07:33:22;2.50;99.90
17845;DHT22;9047;53.486;10.218;2024-02-26T07:35:50;2.50;99.90
17845;DHT22;9047;53.486;10.218;2024-02-26T07:38:20;2.60;99.90
17845;DHT22;9047;53.486;10.218;2024-02-26T07:40:50;2.70;99.90
17845;DHT22;9047;53.486;10.218;2024-02-26T07:43:20;2.70;99.90
17845;DHT22;9047;53.486;10.218;2024-02-26T07:45:51;2.80;99.90
17845;DHT22;9047;53.486;10.218;2024-02-26T07:48:21;2.90;99.90
17845;DHT22;9047;53.486;10.218;2024-02-26T07:50:48;3.00;99.90
17845;DHT22;9047;53.486;10.218;2024-02-26T07:53:21;3.10;99.90
17845;DHT22;9047;53.486;10.218;2024-02-26T07:55:49;3.20;99.90
17845;DHT22;9047;53.486;10.218;2024-02-26T07:58:18;3.30;99.90
17845;DHT22;9047;53.486;10.218;2024-02-26T08:00:46;3.30;99.90
17845;DHT22;9047;53.486;10.218;2024-02-26T08:03:18;3.40;99.90
17845;DHT22;9047;53.486;10.218;2024-02-26T08:05:45;3.40;99.90
17845;DHT22;9047;53.486;10.218;2024-02-26T08:08:12;3.50;99.90
17845;DHT22;9047;53.486;10.218;2024-02-26T08:10:39;3.50;99.90
17845;DHT22;9047;53.486;10.218;2024-02-26T08:13:08;3.50;99.90
17845;DHT22;9047;53.486;10.218;2024-02-26T08:15:35;3.60;99.90
17845;DHT22;9047;53.486;10.218;2024-02-26T08:18:04;3.60;99.90
17845;DHT22;9047;53.486;10.218;2024-02-26T08:20:33;3.70;99.90
17845;DHT22;9047;53.486;10.218;2024-02-26T08:23:00;3.70;99.90
17845;DHT22;9047;53.486;10.218;2024-02-26T08:25:28;3.80;99.90
17845;DHT22;9047;53.486;10.218;2024-02-26T08:27:55;3.80;99.90
17845;DHT22;9047;53.486;10.218;2024-02-26T08:30:28;3.90;99.90
17845;DHT22;9047;53.486;10.218;2024-02-26T08:32:58;3.90;99.90
17845;DHT22;9047;53.486;10.218;2024-02-26T08:35:28;4.00;99.90
17845;DHT22;9047;53.486;10.218;2024-02-26T08:37:59;4.00;99.90
17845;DHT22;9047;53.486;10.218;2024-02-26T08:40:30;4.10;99.90
17845;DHT22;9047;53.486;10.218;2024-02-26T08:43:00;4.20;99.90
17845;DHT22;9047;53.486;10.218;2024-02-26T08:45:29;4.30;99.90
17845;DHT22;9047;53.486;10.218;2024-02-26T08:47:56;4.40;99.90
17845;DHT22;9047;53.486;10.218;2024-02-26T08:50:25;4.40;99.90
17845;DHT22;9047;53.486;10.218;2024-02-26T08:53:07;4.50;99.90
17845;DHT22;9047;53.486;10.218;2024-02-26T08:55:34;4.60;99.90
17845;DHT22;9047;53.486;10.218;2024-02-26T08:58:06;4.70;99.90
17845;DHT22;9047;53.486;10.218;2024-02-26T09:00:34;4.80;99.90
17845;DHT22;9047;53.486;10.218;2024-02-26T09:03:05;4.90;99.90
17845;DHT22;9047;53.486;10.218;2024-02-26T09:05:34;4.90;99.90
17845;DHT22;9047;53.486;10.218;2024-02-26T09:08:04;5.00;99.90
17845;DHT22;9047;53.486;10.218;2024-02-26T09:10:32;5.10;99.90
17845;DHT22;9047;53.486;10.218;2024-02-26T09:12:59;5.10;99.90
17845;DHT22;9047;53.486;10.218;2024-02-26T09:15:28;5.20;99.90
17845;DHT22;9047;53.486;10.218;2024-02-26T09:17:56;5.30;99.90
17845;DHT22;9047;53.486;10.218;2024-02-26T09:20:32;5.50;99.90
17845;DHT22;9047;53.486;10.218;2024-02-26T09:23:15;5.40;99.90
17845;DHT22;9047;53.486;10.218;2024-02-26T09:25:47;5.50;99.90
17845;DHT22;9047;53.486;10.218;2024-02-26T09:28:15;5.60;99.90
17845;DHT22;9047;53.486;10.218;2024-02-26T09:30:44;5.70;99.90
17845;DHT22;9047;53.486;10.218;2024-02-26T09:33:13;5.80;99.90
17845;DHT22;9047;53.486;10.218;2024-02-26T09:35:40;5.90;99.90
17845;DHT22;9047;53.486;10.218;2024-02-26T09:38:08;5.90;99.90
17845;DHT22;9047;53.486;10.218;2024-02-26T09:40:39;6.00;99.90
17845;DHT22;9047;53.486;10.218;2024-02-26T09:43:09;6.00;99.90
17845;DHT22;9047;53.486;10.218;2024-02-26T09:45:40;6.10;99.90
17845;DHT22;9047;53.486;10.218;2024-02-26T09:48:17;6.10;99.90
17845;DHT22;9047;53.486;10.218;2024-02-26T09:50:49;6.20;99.90
17845;DHT22;9047;53.486;10.218;2024-02-26T09:53:19;6.30;99.90
17845;DHT22;9047;53.486;10.218;2024-02-26T09:55:49;6.30;99.90
17845;DHT22;9047;53.486;10.218;2024-02-26T09:58:17;6.30;99.90
17845;DHT22;9047;53.486;10.218;2024-02-26T10:00:50;6.30;99.90
17845;DHT22;9047;53.486;10.218;2024-02-26T10:03:22;6.40;99.90
17845;DHT22;9047;53.486;10.218;2024-02-26T10:05:51;6.40;99.90
17845;DHT22;9047;53.486;10.218;2024-02-26T10:08:21;6.50;99.90
17845;DHT22;9047;53.486;10.218;2024-02-26T10:13:53;6.60;99.90
17845;DHT22;9047;53.486;10.218;2024-02-26T10:16:20;6.80;99.90
17845;DHT22;9047;53.486;10.218;2024-02-26T10:18:49;6.80;99.90
17845;DHT22;9047;53.486;10.218;2024-02-26T10:21:19;6.90;99.90
17845;DHT22;9047;53.486;10.218;2024-02-26T10:23:46;7.00;99.90
17845;DHT22;9047;53.486;10.218;2024-02-26T10:26:14;7.00;99.90
17845;DHT22;9047;53.486;10.218;2024-02-26T10:28:44;7.00;99.90
17845;DHT22;9047;53.486;10.218;2024-02-26T10:31:15;7.00;99.90
17845;DHT22;9047;53.486;10.218;2024-02-26T10:33:44;7.10;99.90
17845;DHT22;9047;53.486;10.218;2024-02-26T10:36:13;7.10;99.90
17845;DHT22;9047;53.486;10.218;2024-02-26T10:38:41;7.10;99.90
17845;DHT22;9047;53.486;10.218;2024-02-26T10:41:13;7.20;99.90
17845;DHT22;9047;53.486;10.218;2024-02-26T10:43:47;7.30;99.90
17845;DHT22;9047;53.486;10.218;2024-02-26T10:46:17;7.30;99.90
17845;DHT22;9047;53.486;10.218;2024-02-26T10:48:49;7.40;99.90
17845;DHT22;9047;53.486;10.218;2024-02-26T10:51:18;7.40;99.90
17845;DHT22;9047;53.486;10.218;2024-02-26T10:53:47;7.40;99.90
17845;DHT22;9047;53.486;10.218;2024-02-26T10:56:19;7.50;99.90
17845;DHT22;9047;53.486;10.218;2024-02-26T10:58:47;7.50;99.90
17845;DHT22;9047;53.486;10.218;2024-02-26T11:01:19;7.50;99.90
17845;DHT22;9047;53.486;10.218;2024-02-26T11:03:49;7.60;99.90
17845;DHT22;9047;53.486;10.218;2024-02-26T11:06:32;7.70;99.90
17845;DHT22;9047;53.486;10.218;2024-02-26T11:09:01;7.70;99.90
17845;DHT22;9047;53.486;10.218;2024-02-26T11:11:30;7.70;99.90
17845;DHT22;9047;53.486;10.218;2024-02-26T11:14:01;7.80;99.90
17845;DHT22;9047;53.486;10.218;2024-02-26T11:16:31;7.80;99.90
17845;DHT22;9047;53.486;10.218;2024-02-26T11:19:02;7.90;99.90
17845;DHT22;9047;53.486;10.218;2024-02-26T11:21:31;8.00;99.90
17845;DHT22;9047;53.486;10.218;2024-02-26T11:24:05;8.00;99.90
17845;DHT22;9047;53.486;10.218;2024-02-26T11:26:34;8.10;99.90
17845;DHT22;9047;53.486;10.218;2024-02-26T11:29:04;8.20;99.90
17845;DHT22;9047;53.486;10.218;2024-02-26T11:31:34;8.30;99.90
17845;DHT22;9047;53.486;10.218;2024-02-26T11:34:01;8.30;99.90
17845;DHT22;9047;53.486;10.218;2024-02-26T11:36:28;8.30;99.90
17845;DHT22;9047;53.486;10.218;2024-02-26T11:38:57;8.30;99.90
17845;DHT22;9047;53.486;10.218;2024-02-26T11:41:27;8.40;99.90
17845;DHT22;9047;53.486;10.218;2024-02-26T11:43:58;8.50;99.90
17845;DHT22;9047;53.486;10.218;2024-02-26T11:46:27;8.60;99.90
17845;DHT22;9047;53.486;10.218;2024-02-26T11:48:58;8.60;99.90
17845;DHT22;9047;53.486;10.218;2024-02-26T11:51:27;8.70;99.90
17845;DHT22;9047;53.486;10.218;2024-02-26T11:53:55;8.80;99.90
17845;DHT22;9047;53.486;10.218;2024-02-26T11:56:34;8.80;99.90
17845;DHT22;9047;53.486;10.218;2024-02-26T11:59:01;8.80;99.90
17845;DHT22;9047;53.486;10.218;2024-02-26T12:01:40;8.90;99.90
17845;DHT22;9047;53.486;10.218;2024-02-26T12:04:12;8.90;99.90
17845;DHT22;9047;53.486;10.218;2024-02-26T12:06:42;8.90;99.90
17845;DHT22;9047;53.486;10.218;2024-02-26T12:09:09;9.00;99.90
17845;DHT22;9047;53.486;10.218;2024-02-26T12:11:41;9.00;99.90
17845;DHT22;9047;53.486;10.218;2024-02-26T12:14:09;9.10;99.90
17845;DHT22;9047;53.486;10.218;2024-02-26T12:16:37;9.00;99.90
17845;DHT22;9047;53.486;10.218;2024-02-26T12:19:06;9.10;99.90
17845;DHT22;9047;53.486;10.218;2024-02-26T12:21:41;9.20;99.90
17845;DHT22;9047;53.486;10.218;2024-02-26T12:24:12;9.20;99.90
17845;DHT22;9047;53.486;10.218;2024-02-26T12:26:40;9.30;99.90
17845;DHT22;9047;53.486;10.218;2024-02-26T12:29:09;9.30;99.90
17845;DHT22;9047;53.486;10.218;2024-02-26T12:31:38;9.30;99.90
17845;DHT22;9047;53.486;10.218;2024-02-26T12:34:08;9.40;99.90
17845;DHT22;9047;53.486;10.218;2024-02-26T12:36:37;9.40;99.90
17845;DHT22;9047;53.486;10.218;2024-02-26T12:39:06;9.50;99.90
17845;DHT22;9047;53.486;10.218;2024-02-26T12:41:35;9.50;99.90
17845;DHT22;9047;53.486;10.218;2024-02-26T12:44:03;9.60;99.90
17845;DHT22;9047;53.486;10.218;2024-02-26T12:46:32;9.70;99.90
17845;DHT22;9047;53.486;10.218;2024-02-26T12:49:02;9.80;99.90
17845;DHT22;9047;53.486;10.218;2024-02-26T12:51:30;9.80;99.90
17845;DHT22;9047;53.486;10.218;2024-02-26T12:53:59;9.80;99.90
17845;DHT22;9047;53.486;10.218;2024-02-26T12:56:27;9.90;99.90
17845;DHT22;9047;53.486;10.218;2024-02-26T12:58:57;9.90;99.90
17845;DHT22;9047;53.486;10.218;2024-02-26T13:01:26;9.90;99.90
17845;DHT22;9047;53.486;10.218;2024-02-26T13:03:55;9.90;99.90
17845;DHT22;9047;53.486;10.218;2024-02-26T13:06:23;9.90;99.90
17845;DHT22;9047;53.486;10.218;2024-02-26T13:08:56;9.90;99.90
17845;DHT22;9047;53.486;10.218;2024-02-26T13:11:26;9.90;99.90
17845;DHT22;9047;53.486;10.218;2024-02-26T13:13:56;9.90;99.90
17845;DHT22;9047;53.486;10.218;2024-02-26T13:16:24;10.00;99.90
17845;DHT22;9047;53.486;10.218;2024-02-26T13:18:53;10.00;99.90
17845;DHT22;9047;53.486;10.218;2024-02-26T13:21:23;10.00;99.90
17845;DHT22;9047;53.486;10.218;2024-02-26T13:23:56;9.90;99.90
17845;DHT22;9047;53.486;10.218;2024-02-26T13:26:26;9.80;99.90
17845;DHT22;9047;53.486;10.218;2024-02-26T13:29:01;9.80;99.90
17845;DHT22;9047;53.486;10.218;2024-02-26T13:31:29;9.70;99.90
17845;DHT22;9047;53.486;10.218;2024-02-26T13:34:04;9.60;99.90
17845;DHT22;9047;53.486;10.218;2024-02-26T13:36:32;9.60;99.90
17845;DHT22;9047;53.486;10.218;2024-02-26T13:38:59;9.40;99.90
17845;DHT22;9047;53.486;10.218;2024-02-26T13:41:39;9.30;99.90
17845;DHT22;9047;53.486;10.218;2024-02-26T13:44:12;9.30;99.90
17845;DHT22;9047;53.486;10.218;2024-02-26T13:46:40;9.20;99.90
17845;DHT22;9047;53.486;10.218;2024-02-26T13:49:09;9.20;99.90
17845;DHT22;9047;53.486;10.218;2024-02-26T13:51:37;9.10;99.90
17845;DHT22;9047;53.486;10.218;2024-02-26T13:54:05;9.10;99.90
17845;DHT22;9047;53.486;10.218;2024-02-26T13:56:36;9.10;99.90
17845;DHT22;9047;53.486;10.218;2024-02-26T13:59:07;9.00;99.90
17845;DHT22;9047;53.486;10.218;2024-02-26T14:01:36;8.90;99.90
17845;DHT22;9047;53.486;10.218;2024-02-26T14:04:04;8.90;99.90
17845;DHT22;9047;53.486;10.218;2024-02-26T14:06:32;8.90;99.90
17845;DHT22;9047;53.486;10.218;2024-02-26T14:09:00;9.00;99.90
17845;DHT22;9047;53.486;10.218;2024-02-26T14:11:31;9.10;99.90
17845;DHT22;9047;53.486;10.218;2024-02-26T14:14:08;9.10;99.90
17845;DHT22;9047;53.486;10.218;2024-02-26T14:16:36;9.10;99.90
17845;DHT22;9047;53.486;10.218;2024-02-26T14:19:03;9.00;99.90
17845;DHT22;9047;53.486;10.218;2024-02-26T14:21:32;9.00;99.90
17845;DHT22;9047;53.486;10.218;2024-02-26T14:23:59;8.90;99.90
17845;DHT22;9047;53.486;10.218;2024-02-26T14:26:31;8.80;99.90
17845;DHT22;9047;53.486;10.218;2024-02-26T14:29:01;8.80;99.90
17845;DHT22;9047;53.486;10.218;2024-02-26T14:31:33;8.80;99.90
17845;DHT22;9047;53.486;10.218;2024-02-26T14:34:01;8.80;99.90
17845;DHT22;9047;53.486;10.218;2024-02-26T14:36:30;8.80;99.90
17845;DHT22;9047;53.486;10.218;2024-02-26T14:39:01;8.80;99.90
17845;DHT22;9047;53.486;10.218;2024-02-26T14:41:36;8.80;99.90
17845;DHT22;9047;53.486;10.218;2024-02-26T14:44:03;8.80;99.90
17845;DHT22;9047;53.486;10.218;2024-02-26T14:46:34;8.80;99.90
17845;DHT22;9047;53.486;10.218;2024-02-26T14:49:01;8.90;99.90
17845;DHT22;9047;53.486;10.218;2024-02-26T14:51:29;8.90;99.90
17845;DHT22;9047;53.486;10.218;2024-02-26T14:54:00;8.90;99.90
17845;DHT22;9047;53.486;10.218;2024-02-26T14:56:30;8.80;99.90
17845;DHT22;9047;53.486;10.218;2024-02-26T14:59:00;8.70;99.90
17845;DHT22;9047;53.486;10.218;2024-02-26T15:01:28;8.60;99.90
17845;DHT22;9047;53.486;10.218;2024-02-26T15:03:56;8.60;99.90
17845;DHT22;9047;53.486;10.218;2024-02-26T15:06:24;8.50;99.90
17845;DHT22;9047;53.486;10.218;2024-02-26T15:08:51;8.40;99.90
17845;DHT22;9047;53.486;10.218;2024-02-26T15:11:19;8.30;99.90
17845;DHT22;9047;53.486;10.218;2024-02-26T15:13:46;8.20;99.90
17845;DHT22;9047;53.486;10.218;2024-02-26T15:16:17;8.10;99.90
17845;DHT22;9047;53.486;10.218;2024-02-26T15:18:49;8.00;99.90
17845;DHT22;9047;53.486;10.218;2024-02-26T15:21:18;8.00;99.90
17845;DHT22;9047;53.486;10.218;2024-02-26T15:23:45;7.90;99.90
17845;DHT22;9047;53.486;10.218;2024-02-26T15:26:13;7.80;99.90
17845;DHT22;9047;53.486;10.218;2024-02-26T15:28:40;7.80;99.90
17845;DHT22;9047;53.486;10.218;2024-02-26T15:31:15;7.70;99.90
17845;DHT22;9047;53.486;10.218;2024-02-26T15:33:45;7.70;99.90
17845;DHT22;9047;53.486;10.218;2024-02-26T15:36:14;7.60;99.90
17845;DHT22;9047;53.486;10.218;2024-02-26T15:38:45;7.50;99.90
17845;DHT22;9047;53.486;10.218;2024-02-26T15:41:12;7.50;99.90
17845;DHT22;9047;53.486;10.218;2024-02-26T15:43:42;7.40;99.90
17845;DHT22;9047;53.486;10.218;2024-02-26T15:46:13;7.40;99.90
17845;DHT22;9047;53.486;10.218;2024-02-26T15:48:39;7.40;99.90
17845;DHT22;9047;53.486;10.218;2024-02-26T15:51:07;7.40;99.90
17845;DHT22;9047;53.486;10.218;2024-02-26T15:53:38;7.30;99.90
17845;DHT22;9047;53.486;10.218;2024-02-26T15:56:10;7.30;99.90
17845;DHT22;9047;53.486;10.218;2024-02-26T15:58:40;7.30;99.90
17845;DHT22;9047;53.486;10.218;2024-02-26T16:01:12;7.20;99.90
17845;DHT22;9047;53.486;10.218;2024-02-26T16:03:40;7.20;99.90